sensor_id;sensor_type;location;lat;lon;timestamp;pressure;altitude;pressure_sealevel;temperature;humidity
67740;BME280;54536;50.090;14.420;2022-11-25T00:01:37;99471.09;;;10.36;63.68
67740;BME280;54536;50.090;14.420;2022-11-25T00:04:04;99471.00;;;10.16;64.01
67740;BME280;54536;50.090;14.420;2022-11-25T00:06:33;99461.91;;;10.20;63.89
67740;BME280;54536;50.090;14.420;2022-11-25T00:09:03;99463.53;;;10.12;64.04
67740;BME280;54536;50.090;14.420;2022-11-25T00:11:29;99460.56;;;10.26;62.92
67740;BME280;54536;50.090;14.420;2022-11-25T00:13:57;99459.00;;;10.23;63.43
67740;BME280;54536;50.090;14.420;2022-11-25T00:16:24;99460.59;;;10.05;63.18
67740;BME280;54536;50.090;14.420;2022-11-25T00:18:55;99458.94;;;10.04;63.39
67740;BME280;54536;50.090;14.420;2022-11-25T00:21:24;99459.63;;;10.27;63.02
67740;BME280;54536;50.090;14.420;2022-11-25T00:23:53;99457.56;;;10.30;63.34
67740;BME280;54536;50.090;14.420;2022-11-25T00:26:21;99452.03;;;10.34;62.62
67740;BME280;54536;50.090;14.420;2022-11-25T00:28:51;99458.75;;;10.26;62.44
67740;BME280;54536;50.090;14.420;2022-11-25T00:31:23;99461.28;;;10.28;62.39
67740;BME280;54536;50.090;14.420;2022-11-25T00:33:50;99452.16;;;10.32;62.38
67740;BME280;54536;50.090;14.420;2022-11-25T00:36:27;99458.31;;;10.21;62.09
67740;BME280;54536;50.090;14.420;2022-11-25T00:38:57;99456.34;;;10.14;63.19
67740;BME280;54536;50.090;14.420;2022-11-25T00:41:24;99458.97;;;10.14;62.42
67740;BME280;54536;50.090;14.420;2022-11-25T00:44:10;99451.72;;;10.27;62.90
67740;BME280;54536;50.090;14.420;2022-11-25T00:46:55;99459.34;;;10.09;63.00
67740;BME280;54536;50.090;14.420;2022-11-25T00:49:21;99468.59;;;10.03;63.53
67740;BME280;54536;50.090;14.420;2022-11-25T00:51:47;99464.44;;;10.01;62.67
67740;BME280;54536;50.090;14.420;2022-11-25T00:54:14;99474.09;;;10.00;63.07
67740;BME280;54536;50.090;14.420;2022-11-25T00:56:40;99465.44;;;10.09;62.84
67740;BME280;54536;50.090;14.420;2022-11-25T00:59:07;99469.56;;;10.02;62.92
67740;BME280;54536;50.090;14.420;2022-11-25T01:01:34;99471.09;;;10.05;63.26
67740;BME280;54536;50.090;14.420;2022-11-25T01:04:01;99464.88;;;10.06;63.08
67740;BME280;54536;50.090;14.420;2022-11-25T01:06:27;99471.81;;;10.17;63.15
67740;BME280;54536;50.090;14.420;2022-11-25T01:08:54;99465.31;;;10.11;62.54
67740;BME280;54536;50.090;14.420;2022-11-25T01:11:22;99471.31;;;10.23;62.39
67740;BME280;54536;50.090;14.420;2022-11-25T01:13:49;99472.84;;;10.25;61.80
67740;BME280;54536;50.090;14.420;2022-11-25T01:16:18;99473.78;;;10.15;62.71
67740;BME280;54536;50.090;14.420;2022-11-25T01:18:45;99472.44;;;10.20;62.18
67740;BME280;54536;50.090;14.420;2022-11-25T01:23:39;99474.56;;;10.36;62.46
67740;BME280;54536;50.090;14.420;2022-11-25T01:26:09;99470.44;;;10.34;62.60
67740;BME280;54536;50.090;14.420;2022-11-25T01:28:36;99471.91;;;10.26;62.86
67740;BME280;54536;50.090;14.420;2022-11-25T01:31:08;99474.19;;;10.20;62.53
67740;BME280;54536;50.090;14.420;2022-11-25T01:33:35;99480.69;;;10.16;63.01
67740;BME280;54536;50.090;14.420;2022-11-25T01:38:29;99476.47;;;10.03;63.14
67740;BME280;54536;50.090;14.420;2022-11-25T01:40:54;99472.59;;;9.98;63.80
67740;BME280;54536;50.090;14.420;2022-11-25T01:43:22;99470.91;;;9.97;63.93
67740;BME280;54536;50.090;14.420;2022-11-25T01:45:48;99465.28;;;10.01;63.48
67740;BME280;54536;50.090;14.420;2022-11-25T01:51:25;99465.59;;;9.87;63.92
67740;BME280;54536;50.090;14.420;2022-11-25T01:54:00;99464.66;;;9.88;63.84
67740;BME280;54536;50.090;14.420;2022-11-25T01:56:32;99477.34;;;9.83;63.77
67740;BME280;54536;50.090;14.420;2022-11-25T01:59:01;99475.78;;;9.80;64.51
67740;BME280;54536;50.090;14.420;2022-11-25T02:01:27;99467.28;;;9.88;63.97
67740;BME280;54536;50.090;14.420;2022-11-25T02:03:56;99472.22;;;9.81;64.35
67740;BME280;54536;50.090;14.420;2022-11-25T02:06:28;99472.09;;;9.83;63.70
67740;BME280;54536;50.090;14.420;2022-11-25T02:09:07;99476.06;;;9.77;63.63
67740;BME280;54536;50.090;14.420;2022-11-25T02:11:37;99478.94;;;9.74;64.43
67740;BME280;54536;50.090;14.420;2022-11-25T02:14:06;99472.16;;;9.72;63.87
67740;BME280;54536;50.090;14.420;2022-11-25T02:16:33;99463.31;;;9.73;63.93
67740;BME280;54536;50.090;14.420;2022-11-25T02:19:00;99465.59;;;9.87;64.06
67740;BME280;54536;50.090;14.420;2022-11-25T02:21:45;99462.16;;;9.87;63.67
67740;BME280;54536;50.090;14.420;2022-11-25T02:24:44;99465.19;;;9.82;63.59
67740;BME280;54536;50.090;14.420;2022-11-25T02:27:10;99468.25;;;9.66;64.39
67740;BME280;54536;50.090;14.420;2022-11-25T02:29:38;99469.16;;;9.76;63.86
67740;BME280;54536;50.090;14.420;2022-11-25T02:32:05;99466.34;;;9.68;64.59
67740;BME280;54536;50.090;14.420;2022-11-25T02:34:31;99468.81;;;9.70;64.57
67740;BME280;54536;50.090;14.420;2022-11-25T02:36:58;99468.06;;;9.79;64.61
67740;BME280;54536;50.090;14.420;2022-11-25T02:39:24;99473.09;;;9.71;63.60
67740;BME280;54536;50.090;14.420;2022-11-25T02:41:56;99472.44;;;9.69;64.33
67740;BME280;54536;50.090;14.420;2022-11-25T02:44:23;99478.34;;;9.71;63.65
67740;BME280;54536;50.090;14.420;2022-11-25T02:46:49;99474.66;;;9.73;64.34
67740;BME280;54536;50.090;14.420;2022-11-25T02:49:16;99471.97;;;9.64;64.21
67740;BME280;54536;50.090;14.420;2022-11-25T02:51:44;99470.06;;;9.66;64.08
67740;BME280;54536;50.090;14.420;2022-11-25T02:54:12;99468.13;;;9.68;63.80
67740;BME280;54536;50.090;14.420;2022-11-25T02:56:39;99464.47;;;9.59;64.76
67740;BME280;54536;50.090;14.420;2022-11-25T02:59:06;99468.19;;;9.56;63.98
67740;BME280;54536;50.090;14.420;2022-11-25T03:01:33;99469.84;;;9.57;64.71
67740;BME280;54536;50.090;14.420;2022-11-25T03:04:00;99469.59;;;9.60;64.16
67740;BME280;54536;50.090;14.420;2022-11-25T03:06:28;99471.66;;;9.57;64.06
67740;BME280;54536;50.090;14.420;2022-11-25T03:08:55;99479.41;;;9.58;63.97
67740;BME280;54536;50.090;14.420;2022-11-25T03:11:21;99475.53;;;9.42;64.17
67740;BME280;54536;50.090;14.420;2022-11-25T03:14:11;99471.66;;;9.36;64.96
67740;BME280;54536;50.090;14.420;2022-11-25T03:16:37;99487.00;;;9.41;64.42
67740;BME280;54536;50.090;14.420;2022-11-25T03:19:03;99481.13;;;9.48;64.41
67740;BME280;54536;50.090;14.420;2022-11-25T03:21:29;99480.78;;;9.42;64.07
67740;BME280;54536;50.090;14.420;2022-11-25T03:23:56;99487.50;;;9.34;64.94
67740;BME280;54536;50.090;14.420;2022-11-25T03:26:22;99490.59;;;9.40;64.80
67740;BME280;54536;50.090;14.420;2022-11-25T03:28:51;99485.66;;;9.46;64.04
67740;BME280;54536;50.090;14.420;2022-11-25T03:31:17;99497.72;;;9.49;65.14
67740;BME280;54536;50.090;14.420;2022-11-25T03:33:43;99480.34;;;9.36;64.53
67740;BME280;54536;50.090;14.420;2022-11-25T03:36:09;99491.00;;;9.24;64.29
67740;BME280;54536;50.090;14.420;2022-11-25T03:38:36;99493.06;;;9.20;65.14
67740;BME280;54536;50.090;14.420;2022-11-25T03:41:02;99490.69;;;9.17;65.31
67740;BME280;54536;50.090;14.420;2022-11-25T03:43:28;99491.00;;;9.24;64.38
67740;BME280;54536;50.090;14.420;2022-11-25T03:45:54;99495.38;;;9.34;64.54
67740;BME280;54536;50.090;14.420;2022-11-25T03:48:21;99493.56;;;9.35;64.25
67740;BME280;54536;50.090;14.420;2022-11-25T03:50:47;99496.16;;;9.14;64.61
67740;BME280;54536;50.090;14.420;2022-11-25T03:53:14;99504.22;;;9.33;64.54
67740;BME280;54536;50.090;14.420;2022-11-25T03:55:40;99496.09;;;9.36;64.01
67740;BME280;54536;50.090;14.420;2022-11-25T03:58:07;99501.66;;;9.43;64.60
67740;BME280;54536;50.090;14.420;2022-11-25T04:00:33;99498.47;;;9.40;63.99
67740;BME280;54536;50.090;14.420;2022-11-25T04:02:59;99497.13;;;9.13;65.21
67740;BME280;54536;50.090;14.420;2022-11-25T04:05:25;99505.78;;;9.25;65.21
67740;BME280;54536;50.090;14.420;2022-11-25T04:07:51;99507.47;;;9.26;64.44
67740;BME280;54536;50.090;14.420;2022-11-25T04:10:17;99509.00;;;9.28;64.19
67740;BME280;54536;50.090;14.420;2022-11-25T04:12:44;99500.44;;;9.26;64.58
67740;BME280;54536;50.090;14.420;2022-11-25T04:15:14;99503.94;;;9.16;64.56
67740;BME280;54536;50.090;14.420;2022-11-25T04:17:41;99501.31;;;9.16;64.41
67740;BME280;54536;50.090;14.420;2022-11-25T04:20:08;99506.09;;;9.10;64.64
67740;BME280;54536;50.090;14.420;2022-11-25T04:22:34;99507.81;;;9.21;64.84
67740;BME280;54536;50.090;14.420;2022-11-25T04:25:01;99509.47;;;9.33;64.67
67740;BME280;54536;50.090;14.420;2022-11-25T04:27:28;99506.25;;;9.30;64.10
67740;BME280;54536;50.090;14.420;2022-11-25T04:29:54;99503.06;;;9.26;64.50
67740;BME280;54536;50.090;14.420;2022-11-25T04:32:21;99499.50;;;9.16;65.01
67740;BME280;54536;50.090;14.420;2022-11-25T04:34:47;99503.84;;;9.06;65.49
67740;BME280;54536;50.090;14.420;2022-11-25T04:37:14;99498.63;;;9.27;64.24
67740;BME280;54536;50.090;14.420;2022-11-25T04:39:40;99510.44;;;9.21;64.46
67740;BME280;54536;50.090;14.420;2022-11-25T04:42:06;99507.97;;;9.20;64.61
67740;BME280;54536;50.090;14.420;2022-11-25T04:44:51;99509.38;;;9.24;65.03
67740;BME280;54536;50.090;14.420;2022-11-25T04:47:17;99517.72;;;9.29;64.38
67740;BME280;54536;50.090;14.420;2022-11-25T04:49:43;99516.53;;;9.22;64.88
67740;BME280;54536;50.090;14.420;2022-11-25T04:52:09;99514.03;;;9.20;64.88
67740;BME280;54536;50.090;14.420;2022-11-25T04:54:35;99517.34;;;9.33;64.35
67740;BME280;54536;50.090;14.420;2022-11-25T04:57:02;99512.91;;;9.34;64.77
67740;BME280;54536;50.090;14.420;2022-11-25T04:59:28;99518.63;;;9.39;64.76
67740;BME280;54536;50.090;14.420;2022-11-25T05:02:26;99523.66;;;9.31;64.88
67740;BME280;54536;50.090;14.420;2022-11-25T05:04:55;99515.38;;;9.14;64.99
67740;BME280;54536;50.090;14.420;2022-11-25T05:07:23;99522.34;;;9.36;64.74
67740;BME280;54536;50.090;14.420;2022-11-25T05:09:50;99521.59;;;9.46;64.70
67740;BME280;54536;50.090;14.420;2022-11-25T05:12:22;99527.16;;;9.52;63.94
67740;BME280;54536;50.090;14.420;2022-11-25T05:14:49;99523.72;;;9.52;64.43
67740;BME280;54536;50.090;14.420;2022-11-25T05:17:18;99527.69;;;9.35;64.11
67740;BME280;54536;50.090;14.420;2022-11-25T05:19:45;99525.75;;;9.16;65.00
67740;BME280;54536;50.090;14.420;2022-11-25T05:22:14;99523.22;;;9.14;65.45
67740;BME280;54536;50.090;14.420;2022-11-25T05:24:41;99526.56;;;9.17;65.16
67740;BME280;54536;50.090;14.420;2022-11-25T05:27:08;99532.06;;;9.13;65.27
67740;BME280;54536;50.090;14.420;2022-11-25T05:29:35;99522.53;;;9.12;65.11
67740;BME280;54536;50.090;14.420;2022-11-25T05:32:03;99526.25;;;9.10;66.05
67740;BME280;54536;50.090;14.420;2022-11-25T05:34:29;99527.91;;;9.11;65.54
67740;BME280;54536;50.090;14.420;2022-11-25T05:36:56;99524.84;;;9.06;65.33
67740;BME280;54536;50.090;14.420;2022-11-25T05:39:23;99524.34;;;9.01;65.09
67740;BME280;54536;50.090;14.420;2022-11-25T05:41:50;99527.44;;;9.06;65.83
67740;BME280;54536;50.090;14.420;2022-11-25T05:44:15;99530.03;;;9.17;64.99
67740;BME280;54536;50.090;14.420;2022-11-25T05:46:45;99525.06;;;9.03;65.30
67740;BME280;54536;50.090;14.420;2022-11-25T05:49:12;99532.06;;;9.13;65.64
67740;BME280;54536;50.090;14.420;2022-11-25T05:51:38;99530.75;;;9.19;65.13
67740;BME280;54536;50.090;14.420;2022-11-25T05:54:04;99524.06;;;9.15;64.81
67740;BME280;54536;50.090;14.420;2022-11-25T05:56:30;99529.22;;;9.05;65.52
67740;BME280;54536;50.090;14.420;2022-11-25T05:59:00;99529.44;;;9.13;65.05
67740;BME280;54536;50.090;14.420;2022-11-25T06:01:26;99530.53;;;9.11;65.34
67740;BME280;54536;50.090;14.420;2022-11-25T06:03:53;99534.97;;;8.99;65.40
67740;BME280;54536;50.090;14.420;2022-11-25T06:06:19;99538.06;;;9.04;64.91
67740;BME280;54536;50.090;14.420;2022-11-25T06:08:46;99544.38;;;9.02;64.87
67740;BME280;54536;50.090;14.420;2022-11-25T06:11:15;99546.53;;;8.85;65.39
67740;BME280;54536;50.090;14.420;2022-11-25T06:13:42;99539.25;;;8.89;65.60
67740;BME280;54536;50.090;14.420;2022-11-25T06:16:15;99547.50;;;8.84;65.86
67740;BME280;54536;50.090;14.420;2022-11-25T06:18:42;99548.00;;;8.78;65.02
67740;BME280;54536;50.090;14.420;2022-11-25T06:21:09;99545.16;;;8.70;65.97
67740;BME280;54536;50.090;14.420;2022-11-25T06:23:36;99548.81;;;8.79;65.76
67740;BME280;54536;50.090;14.420;2022-11-25T06:26:09;99558.59;;;8.88;64.78
67740;BME280;54536;50.090;14.420;2022-11-25T06:28:37;99554.09;;;8.67;66.10
67740;BME280;54536;50.090;14.420;2022-11-25T06:31:09;99556.59;;;8.58;65.61
67740;BME280;54536;50.090;14.420;2022-11-25T06:33:36;99557.28;;;8.60;65.95
67740;BME280;54536;50.090;14.420;2022-11-25T06:36:08;99568.25;;;8.42;66.45
67740;BME280;54536;50.090;14.420;2022-11-25T06:38:47;99563.38;;;8.38;66.55
67740;BME280;54536;50.090;14.420;2022-11-25T06:41:14;99576.41;;;8.15;67.35
67740;BME280;54536;50.090;14.420;2022-11-25T06:43:41;99574.88;;;8.24;66.78
67740;BME280;54536;50.090;14.420;2022-11-25T06:46:09;99579.25;;;8.24;66.64
67740;BME280;54536;50.090;14.420;2022-11-25T06:48:36;99581.53;;;8.17;66.38
67740;BME280;54536;50.090;14.420;2022-11-25T06:51:05;99593.56;;;8.19;67.12
67740;BME280;54536;50.090;14.420;2022-11-25T06:53:33;99592.25;;;8.25;66.20
67740;BME280;54536;50.090;14.420;2022-11-25T06:56:06;99601.88;;;8.13;66.45
67740;BME280;54536;50.090;14.420;2022-11-25T06:58:33;99600.22;;;8.12;67.01
67740;BME280;54536;50.090;14.420;2022-11-25T07:03:40;99604.34;;;8.04;66.53
67740;BME280;54536;50.090;14.420;2022-11-25T07:06:06;99610.09;;;8.09;66.92
67740;BME280;54536;50.090;14.420;2022-11-25T07:08:32;99609.13;;;8.10;66.30
67740;BME280;54536;50.090;14.420;2022-11-25T07:11:11;99612.25;;;8.15;66.15
67740;BME280;54536;50.090;14.420;2022-11-25T07:13:39;99620.75;;;7.94;66.53
67740;BME280;54536;50.090;14.420;2022-11-25T07:16:06;99618.91;;;8.08;66.79
67740;BME280;54536;50.090;14.420;2022-11-25T07:18:35;99622.59;;;8.05;66.65
67740;BME280;54536;50.090;14.420;2022-11-25T07:23:29;99619.88;;;8.18;65.28
67740;BME280;54536;50.090;14.420;2022-11-25T07:26:07;99620.56;;;8.09;66.46
67740;BME280;54536;50.090;14.420;2022-11-25T07:28:34;99629.41;;;8.19;66.30
67740;BME280;54536;50.090;14.420;2022-11-25T07:31:08;99632.25;;;8.27;66.13
67740;BME280;54536;50.090;14.420;2022-11-25T07:33:35;99642.75;;;8.27;65.72
67740;BME280;54536;50.090;14.420;2022-11-25T07:36:07;99646.03;;;8.07;66.26
67740;BME280;54536;50.090;14.420;2022-11-25T07:38:34;99639.50;;;8.12;65.85
67740;BME280;54536;50.090;14.420;2022-11-25T07:41:04;99646.00;;;7.95;66.18
67740;BME280;54536;50.090;14.420;2022-11-25T07:43:32;99640.19;;;8.03;65.91
67740;BME280;54536;50.090;14.420;2022-11-25T07:46:31;99648.94;;;7.91;66.73
67740;BME280;54536;50.090;14.420;2022-11-25T07:49:00;99649.66;;;7.93;67.09
67740;BME280;54536;50.090;14.420;2022-11-25T07:51:30;99645.44;;;7.79;67.64
67740;BME280;54536;50.090;14.420;2022-11-25T07:53:58;99642.59;;;7.82;67.62
67740;BME280;54536;50.090;14.420;2022-11-25T07:56:27;99650.03;;;7.88;67.28
67740;BME280;54536;50.090;14.420;2022-11-25T07:58:55;99649.00;;;8.02;67.38
67740;BME280;54536;50.090;14.420;2022-11-25T08:01:21;99656.72;;;8.04;67.20
67740;BME280;54536;50.090;14.420;2022-11-25T08:03:49;99644.31;;;8.30;66.89
67740;BME280;54536;50.090;14.420;2022-11-25T08:06:22;99651.31;;;8.29;66.15
67740;BME280;54536;50.090;14.420;2022-11-25T08:08:50;99647.41;;;8.35;65.80
67740;BME280;54536;50.090;14.420;2022-11-25T08:11:22;99643.53;;;8.40;66.10
67740;BME280;54536;50.090;14.420;2022-11-25T08:13:49;99650.53;;;8.40;66.08
67740;BME280;54536;50.090;14.420;2022-11-25T08:16:17;99647.09;;;8.39;66.13
67740;BME280;54536;50.090;14.420;2022-11-25T08:18:45;99637.09;;;8.44;65.93
67740;BME280;54536;50.090;14.420;2022-11-25T08:21:13;99639.66;;;8.33;66.25
67740;BME280;54536;50.090;14.420;2022-11-25T08:23:41;99639.28;;;8.27;66.49
67740;BME280;54536;50.090;14.420;2022-11-25T08:26:18;99636.81;;;8.36;65.86
67740;BME280;54536;50.090;14.420;2022-11-25T08:28:45;99639.28;;;8.51;66.47
67740;BME280;54536;50.090;14.420;2022-11-25T08:31:16;99641.16;;;8.60;65.79
67740;BME280;54536;50.090;14.420;2022-11-25T08:33:44;99639.50;;;8.48;65.81
67740;BME280;54536;50.090;14.420;2022-11-25T08:36:10;99644.63;;;8.60;66.29
67740;BME280;54536;50.090;14.420;2022-11-25T08:38:38;99646.75;;;8.55;66.00
67740;BME280;54536;50.090;14.420;2022-11-25T08:41:18;99649.84;;;8.49;67.14
67740;BME280;54536;50.090;14.420;2022-11-25T08:43:45;99640.25;;;8.83;65.31
67740;BME280;54536;50.090;14.420;2022-11-25T08:46:16;99646.06;;;8.76;65.20
67740;BME280;54536;50.090;14.420;2022-11-25T08:48:42;99640.09;;;8.85;64.93
67740;BME280;54536;50.090;14.420;2022-11-25T08:51:13;99638.09;;;8.88;64.70
67740;BME280;54536;50.090;14.420;2022-11-25T08:53:43;99636.78;;;8.83;64.48
67740;BME280;54536;50.090;14.420;2022-11-25T08:56:10;99635.47;;;9.00;64.53
67740;BME280;54536;50.090;14.420;2022-11-25T08:58:37;99647.59;;;9.12;63.63
67740;BME280;54536;50.090;14.420;2022-11-25T09:01:06;99639.00;;;9.21;63.85
67740;BME280;54536;50.090;14.420;2022-11-25T09:03:39;99647.94;;;9.19;64.29
67740;BME280;54536;50.090;14.420;2022-11-25T09:06:08;99648.56;;;9.22;63.78
67740;BME280;54536;50.090;14.420;2022-11-25T09:08:35;99650.47;;;9.09;64.12
67740;BME280;54536;50.090;14.420;2022-11-25T09:11:03;99652.03;;;9.23;64.11
67740;BME280;54536;50.090;14.420;2022-11-25T09:13:30;99659.31;;;9.19;64.29
67740;BME280;54536;50.090;14.420;2022-11-25T09:15:57;99658.81;;;9.14;63.86
67740;BME280;54536;50.090;14.420;2022-11-25T09:18:23;99658.59;;;9.06;64.76
67740;BME280;54536;50.090;14.420;2022-11-25T09:20:52;99661.31;;;9.04;64.61
67740;BME280;54536;50.090;14.420;2022-11-25T09:23:19;99667.16;;;9.30;63.35
67740;BME280;54536;50.090;14.420;2022-11-25T09:25:53;99670.59;;;9.42;63.83
67740;BME280;54536;50.090;14.420;2022-11-25T09:28:20;99665.84;;;9.25;64.15
67740;BME280;54536;50.090;14.420;2022-11-25T09:30:47;99667.16;;;9.30;63.87
67740;BME280;54536;50.090;14.420;2022-11-25T09:33:13;99664.28;;;9.33;64.23
67740;BME280;54536;50.090;14.420;2022-11-25T09:35:40;99656.66;;;9.30;64.31
67740;BME280;54536;50.090;14.420;2022-11-25T09:38:07;99660.84;;;9.33;63.91
67740;BME280;54536;50.090;14.420;2022-11-25T09:40:44;99661.19;;;9.28;64.31
67740;BME280;54536;50.090;14.420;2022-11-25T09:43:42;99658.41;;;9.52;62.93
67740;BME280;54536;50.090;14.420;2022-11-25T09:52:50;99648.34;;;9.57;62.47
67740;BME280;54536;50.090;14.420;2022-11-25T09:55:21;99649.81;;;9.61;62.64
67740;BME280;54536;50.090;14.420;2022-11-25T09:58:13;99648.78;;;9.74;62.04
67740;BME280;54536;50.090;14.420;2022-11-25T10:00:45;99653.00;;;9.65;62.92
67740;BME280;54536;50.090;14.420;2022-11-25T10:03:51;99650.59;;;9.73;62.04
67740;BME280;54536;50.090;14.420;2022-11-25T10:08:42;99655.56;;;9.88;62.43
67740;BME280;54536;50.090;14.420;2022-11-25T10:16:34;99653.47;;;10.23;62.55
67740;BME280;54536;50.090;14.420;2022-11-25T10:21:57;99667.75;;;10.09;61.19
67740;BME280;54536;50.090;14.420;2022-11-25T10:24:24;99663.31;;;10.10;61.72
67740;BME280;54536;50.090;14.420;2022-11-25T10:26:57;99668.13;;;10.37;60.45
67740;BME280;54536;50.090;14.420;2022-11-25T10:29:29;99679.97;;;10.52;60.18
67740;BME280;54536;50.090;14.420;2022-11-25T10:32:24;99666.06;;;10.62;60.21
67740;BME280;54536;50.090;14.420;2022-11-25T10:35:06;99668.19;;;10.68;61.14
67740;BME280;54536;50.090;14.420;2022-11-25T10:37:41;99662.75;;;10.60;59.51
67740;BME280;54536;50.090;14.420;2022-11-25T10:40:14;99667.41;;;10.56;60.18
67740;BME280;54536;50.090;14.420;2022-11-25T10:42:41;99666.50;;;10.46;60.30
67740;BME280;54536;50.090;14.420;2022-11-25T10:45:09;99667.03;;;10.40;61.06
67740;BME280;54536;50.090;14.420;2022-11-25T10:55:31;99665.19;;;10.51;60.63
67740;BME280;54536;50.090;14.420;2022-11-25T10:57:59;99666.06;;;10.62;60.57
67740;BME280;54536;50.090;14.420;2022-11-25T11:00:44;99665.94;;;10.63;60.03
67740;BME280;54536;50.090;14.420;2022-11-25T11:03:22;99667.91;;;10.71;61.83
67740;BME280;54536;50.090;14.420;2022-11-25T11:05:51;99661.69;;;10.72;59.82
67740;BME280;54536;50.090;14.420;2022-11-25T11:08:24;99671.72;;;10.57;61.65
67740;BME280;54536;50.090;14.420;2022-11-25T11:13:36;99668.72;;;10.92;60.66
67740;BME280;54536;50.090;14.420;2022-11-25T11:16:03;99672.88;;;10.95;59.98
67740;BME280;54536;50.090;14.420;2022-11-25T11:18:40;99667.59;;;10.95;59.46
67740;BME280;54536;50.090;14.420;2022-11-25T11:21:41;99661.53;;;11.35;58.54
67740;BME280;54536;50.090;14.420;2022-11-25T11:24:29;99660.22;;;11.19;58.48
67740;BME280;54536;50.090;14.420;2022-11-25T11:27:24;99658.88;;;11.25;58.66
67740;BME280;54536;50.090;14.420;2022-11-25T11:30:20;99653.63;;;11.25;60.07
67740;BME280;54536;50.090;14.420;2022-11-25T11:33:02;99648.19;;;11.27;58.81
67740;BME280;54536;50.090;14.420;2022-11-25T11:35:43;99641.41;;;11.24;57.87
67740;BME280;54536;50.090;14.420;2022-11-25T11:38:32;99643.69;;;11.08;57.89
67740;BME280;54536;50.090;14.420;2022-11-25T11:52:28;99642.66;;;11.30;57.17
67740;BME280;54536;50.090;14.420;2022-11-25T11:55:23;99652.75;;;11.24;57.13
67740;BME280;54536;50.090;14.420;2022-11-25T12:00:44;99631.69;;;11.24;57.06
67740;BME280;54536;50.090;14.420;2022-11-25T12:03:20;99642.50;;;11.21;57.24
67740;BME280;54536;50.090;14.420;2022-11-25T12:05:49;99644.75;;;11.26;57.27
67740;BME280;54536;50.090;14.420;2022-11-25T12:11:22;99642.78;;;11.18;57.13
67740;BME280;54536;50.090;14.420;2022-11-25T12:14:10;99637.53;;;11.18;57.30
67740;BME280;54536;50.090;14.420;2022-11-25T12:16:49;99642.88;;;11.07;58.48
67740;BME280;54536;50.090;14.420;2022-11-25T12:22:28;99638.66;;;11.25;58.47
67740;BME280;54536;50.090;14.420;2022-11-25T12:25:23;99639.75;;;11.23;58.09
67740;BME280;54536;50.090;14.420;2022-11-25T12:34:25;99635.22;;;11.35;57.94
67740;BME280;54536;50.090;14.420;2022-11-25T12:36:33;99632.72;;;11.43;57.81
67740;BME280;54536;50.090;14.420;2022-11-25T12:39:08;99630.63;;;11.37;58.02
67740;BME280;54536;50.090;14.420;2022-11-25T12:41:58;99632.44;;;11.46;57.53
67740;BME280;54536;50.090;14.420;2022-11-25T12:47:24;99632.88;;;11.51;58.10
67740;BME280;54536;50.090;14.420;2022-11-25T12:49:53;99636.06;;;11.45;57.61
67740;BME280;54536;50.090;14.420;2022-11-25T13:00:21;99630.22;;;11.32;57.55
67740;BME280;54536;50.090;14.420;2022-11-25T13:16:30;99632.69;;;11.33;58.28
67740;BME280;54536;50.090;14.420;2022-11-25T13:18:56;99633.13;;;11.29;58.74
67740;BME280;54536;50.090;14.420;2022-11-25T13:21:24;99639.84;;;11.21;58.07
67740;BME280;54536;50.090;14.420;2022-11-25T13:23:56;99639.31;;;11.28;58.38
67740;BME280;54536;50.090;14.420;2022-11-25T13:34:34;99639.84;;;11.21;58.45
67740;BME280;54536;50.090;14.420;2022-11-25T13:37:33;99640.16;;;11.18;58.36
67740;BME280;54536;50.090;14.420;2022-11-25T13:39:47;99636.66;;;11.18;58.33
67740;BME280;54536;50.090;14.420;2022-11-25T13:42:23;99637.38;;;11.20;57.96
67740;BME280;54536;50.090;14.420;2022-11-25T13:44:56;99647.03;;;11.10;58.34
67740;BME280;54536;50.090;14.420;2022-11-25T13:47:39;99637.50;;;11.09;58.76
67740;BME280;54536;50.090;14.420;2022-11-25T13:52:57;99643.78;;;10.87;58.84
67740;BME280;54536;50.090;14.420;2022-11-25T14:09:03;99651.31;;;10.70;59.03
67740;BME280;54536;50.090;14.420;2022-11-25T14:17:40;99654.72;;;10.61;59.29
67740;BME280;54536;50.090;14.420;2022-11-25T14:20:30;99656.50;;;10.61;59.36
67740;BME280;54536;50.090;14.420;2022-11-25T14:26:02;99657.59;;;10.58;59.46
67740;BME280;54536;50.090;14.420;2022-11-25T14:28:56;99664.91;;;10.54;59.83
67740;BME280;54536;50.090;14.420;2022-11-25T14:31:36;99674.59;;;10.54;59.87
67740;BME280;54536;50.090;14.420;2022-11-25T14:34:31;99671.72;;;10.57;59.85
67740;BME280;54536;50.090;14.420;2022-11-25T14:37:09;99677.09;;;10.55;59.25
67740;BME280;54536;50.090;14.420;2022-11-25T14:39:47;99681.09;;;10.50;60.00
67740;BME280;54536;50.090;14.420;2022-11-25T14:42:20;99677.03;;;10.46;59.48
67740;BME280;54536;50.090;14.420;2022-11-25T14:44:53;99674.66;;;10.43;60.04
67740;BME280;54536;50.090;14.420;2022-11-25T14:47:30;99679.16;;;10.31;59.92
67740;BME280;54536;50.090;14.420;2022-11-25T14:49:58;99679.00;;;10.32;60.24
67740;BME280;54536;50.090;14.420;2022-11-25T14:52:31;99687.75;;;10.22;60.12
67740;BME280;54536;50.090;14.420;2022-11-25T14:55:01;99689.09;;;10.27;60.51
67740;BME280;54536;50.090;14.420;2022-11-25T14:57:33;99690.03;;;10.26;60.72
67740;BME280;54536;50.090;14.420;2022-11-25T15:00:14;99688.50;;;10.24;60.34
67740;BME280;54536;50.090;14.420;2022-11-25T15:02:52;99686.47;;;10.16;61.14
67740;BME280;54536;50.090;14.420;2022-11-25T15:05:41;99692.19;;;10.21;61.18
67740;BME280;54536;50.090;14.420;2022-11-25T15:08:14;99691.03;;;10.14;60.64
67740;BME280;54536;50.090;14.420;2022-11-25T15:10:55;99695.25;;;10.05;60.88
67740;BME280;54536;50.090;14.420;2022-11-25T15:16:07;99708.47;;;10.15;61.30
67740;BME280;54536;50.090;14.420;2022-11-25T15:18:37;99710.00;;;10.18;60.40
67740;BME280;54536;50.090;14.420;2022-11-25T15:21:04;99707.63;;;10.15;61.29
67740;BME280;54536;50.090;14.420;2022-11-25T15:23:35;99709.28;;;10.16;61.51